Time;durP1;ratioP1;P1;durP2;ratioP2;P2;SDS_P1;SDS_P2;PMS_P1;PMS_P2;Temp;Humidity;BMP_temperature;BMP_pressure;BME280_temperature;BME280_humidity;BME280_pressure;Samples;Min_cycle;Max_cycle;Signal;HPM_P1;HPM_P2
2021/03/16 00:00:52;;;;;;;4.18;2.70;;;;;;;;;;4953981;29;20173;-77
2021/03/16 00:03:18;;;;;;;6.15;2.00;;;;;;;;;;4954028;29;20190;-78
2021/03/16 00:05:44;;;;;;;2.92;1.73;;;;;;;;;;4955867;29;20177;-76
2021/03/16 00:08:11;;;;;;;3.80;1.90;;;;;;;;;;4957233;29;20203;-74
2021/03/16 00:10:37;;;;;;;2.65;1.52;;;;;;;;;;4954579;28;20633;-77
2021/03/16 00:16:06;;;;;;;4.25;1.75;;;;;;;;;;4957429;29;20500;-75
2021/03/16 00:18:32;;;;;;;4.97;1.92;;;;;;;;;;4957255;29;20175;-78
2021/03/16 00:20:59;;;;;;;6.78;2.42;;;;;;;;;;4957502;29;20178;-75
2021/03/16 00:23:24;;;;;;;4.75;2.10;;;;;;;;;;4957247;29;20571;-78
2021/03/16 00:25:50;;;;;;;3.30;1.80;;;;;;;;;;4956718;29;20201;-76
2021/03/16 00:31:20;;;;;;;5.53;2.00;;;;;;;;;;4957392;29;20861;-76
2021/03/16 00:33:46;;;;;;;5.90;2.10;;;;;;;;;;4957270;29;20175;-78
2021/03/16 00:36:12;;;;;;;3.15;1.70;;;;;;;;;;4940132;29;20995;-76
2021/03/16 00:38:38;;;;;;;3.23;1.83;;;;;;;;;;4957147;29;20254;-78
2021/03/16 00:41:04;;;;;;;6.15;2.35;;;;;;;;;;4957169;29;20430;-75
2021/03/16 00:43:30;;;;;;;3.40;2.00;;;;;;;;;;4956764;29;20605;-77
2021/03/16 00:45:56;;;;;;;2.80;2.05;;;;;;;;;;4957083;29;20512;-78
2021/03/16 00:48:22;;;;;;;1.92;1.38;;;;;;;;;;4956913;29;20265;-77
2021/03/16 00:50:48;;;;;;;2.50;2.30;;;;;;;;;;4956840;29;20574;-77
2021/03/16 00:53:14;;;;;;;4.83;2.27;;;;;;;;;;4956872;29;20484;-77
2021/03/16 00:55:40;;;;;;;2.70;1.87;;;;;;;;;;4956603;29;20508;-76
2021/03/16 01:01:10;;;;;;;3.58;1.67;;;;;;;;;;4957189;29;20185;-77
2021/03/16 01:03:36;;;;;;;2.75;1.90;;;;;;;;;;4956771;29;20174;-74
2021/03/16 01:06:02;;;;;;;2.80;2.55;;;;;;;;;;4957098;29;20171;-78
2021/03/16 01:08:29;;;;;;;6.25;2.63;;;;;;;;;;4957125;29;20174;-77
2021/03/16 01:10:55;;;;;;;2.75;1.77;;;;;;;;;;4956873;29;20224;-76
2021/03/16 01:16:24;;;;;;;3.88;2.13;;;;;;;;;;4956451;29;20478;-77
2021/03/16 01:18:50;;;;;;;2.55;1.48;;;;;;;;;;4922085;29;20201;-78
2021/03/16 01:21:16;;;;;;;5.47;1.90;;;;;;;;;;4956434;29;20179;-78
2021/03/16 01:23:42;;;;;;;4.95;2.00;;;;;;;;;;4955653;28;20934;-75
2021/03/16 01:31:56;;;;;;;2.20;1.95;;;;;;;;;;4956285;29;20183;-77
2021/03/16 01:34:24;;;;;;;3.10;1.70;;;;;;;;;;4956069;29;20181;-77
2021/03/16 01:36:50;;;;;;;2.20;2.00;;;;;;;;;;4939167;29;20959;-78
2021/03/16 01:39:16;;;;;;;3.97;2.00;;;;;;;;;;4956198;29;20173;-77
2021/03/16 01:41:42;;;;;;;2.87;2.30;;;;;;;;;;4955933;29;20966;-75
2021/03/16 01:44:08;;;;;;;4.68;2.30;;;;;;;;;;4956031;29;20523;-77
2021/03/16 01:46:34;;;;;;;2.30;2.10;;;;;;;;;;4956174;29;20264;-79
2021/03/16 01:49:00;;;;;;;2.70;1.80;;;;;;;;;;4956075;29;20416;-77
2021/03/16 01:51:26;;;;;;;3.58;2.08;;;;;;;;;;4956151;29;20173;-77
2021/03/16 01:53:52;;;;;;;5.00;2.83;;;;;;;;;;4955737;29;20179;-76
2021/03/16 02:02:07;;;;;;;2.40;1.80;;;;;;;;;;4957282;29;20201;-77
2021/03/16 02:04:35;;;;;;;3.83;2.33;;;;;;;;;;4922435;29;20191;-79
2021/03/16 02:07:11;;;;;;;3.30;2.13;;;;;;;;;;4955602;29;20443;-78
2021/03/16 02:09:37;;;;;;;3.58;2.55;;;;;;;;;;4956013;29;20206;-76
2021/03/16 02:12:08;;;;;;;4.70;2.57;;;;;;;;;;4955074;29;20173;-77
2021/03/16 02:14:36;;;;;;;4.38;2.70;;;;;;;;;;4955671;29;20495;-75
2021/03/16 02:17:17;;;;;;;3.65;2.50;;;;;;;;;;4955218;29;20654;-77
2021/03/16 02:20:01;;;;;;;3.75;2.15;;;;;;;;;;4955776;29;20178;-77
2021/03/16 02:22:29;;;;;;;2.60;2.40;;;;;;;;;;4955365;29;20167;-74
2021/03/16 02:25:01;;;;;;;2.65;2.03;;;;;;;;;;4955517;29;20176;-79
2021/03/16 02:27:29;;;;;;;4.45;3.53;;;;;;;;;;4955178;29;20199;-78
2021/03/16 02:29:59;;;;;;;2.83;2.50;;;;;;;;;;4955513;29;20176;-75
2021/03/16 02:32:27;;;;;;;4.50;2.63;;;;;;;;;;4955223;29;20180;-74
2021/03/16 02:34:56;;;;;;;8.40;3.05;;;;;;;;;;4954335;28;20215;-75
2021/03/16 02:37:23;;;;;;;7.65;2.47;;;;;;;;;;4955084;29;20247;-75
2021/03/16 02:39:50;;;;;;;7.80;2.97;;;;;;;;;;4955064;29;20211;-74
2021/03/16 02:42:17;;;;;;;3.65;2.22;;;;;;;;;;4954769;29;20223;-75
2021/03/16 02:44:44;;;;;;;3.88;2.45;;;;;;;;;;4954820;29;20247;-76
2021/03/16 02:47:10;;;;;;;7.32;2.40;;;;;;;;;;4955185;29;20172;-75
2021/03/16 02:49:37;;;;;;;2.42;2.10;;;;;;;;;;4954987;29;20199;-74
2021/03/16 02:52:04;;;;;;;2.17;1.98;;;;;;;;;;4954756;29;20176;-75
2021/03/16 02:54:30;;;;;;;2.50;2.20;;;;;;;;;;4954821;29;20195;-77
2021/03/16 02:56:57;;;;;;;12.25;2.80;;;;;;;;;;4954735;29;20166;-76
2021/03/16 02:59:24;;;;;;;3.97;2.25;;;;;;;;;;4954705;29;20179;-78
2021/03/16 03:01:51;;;;;;;5.25;2.65;;;;;;;;;;4954876;29;20514;-77
2021/03/16 03:04:17;;;;;;;8.25;2.50;;;;;;;;;;4954858;29;20173;-77
2021/03/16 03:06:44;;;;;;;5.03;2.17;;;;;;;;;;4954638;29;20268;-74
2021/03/16 03:09:11;;;;;;;2.47;1.98;;;;;;;;;;4937977;29;20206;-76
2021/03/16 03:11:37;;;;;;;4.55;2.50;;;;;;;;;;4954581;29;20165;-75
2021/03/16 03:14:04;;;;;;;2.00;1.83;;;;;;;;;;4954132;29;20216;-77
2021/03/16 03:16:31;;;;;;;3.13;2.10;;;;;;;;;;4954456;29;21003;-77
2021/03/16 03:18:57;;;;;;;3.22;1.73;;;;;;;;;;4953917;29;20524;-76
2021/03/16 03:21:29;;;;;;;4.82;2.42;;;;;;;;;;4954434;29;20663;-76
2021/03/16 03:24:06;;;;;;;3.95;1.95;;;;;;;;;;4954917;29;20568;-76
2021/03/16 03:32:28;;;;;;;11.20;4.00;;;;;;;;;;4953759;29;20203;-75
2021/03/16 03:34:53;;;;;;;7.20;2.70;;;;;;;;;;4953913;29;20208;-75
2021/03/16 03:37:22;;;;;;;4.63;2.50;;;;;;;;;;4954061;29;20176;-78
2021/03/16 03:39:48;;;;;;;3.85;2.22;;;;;;;;;;4953832;29;20424;-79
2021/03/16 03:42:16;;;;;;;3.30;2.42;;;;;;;;;;4954052;29;20180;-75
2021/03/16 03:44:44;;;;;;;3.08;1.98;;;;;;;;;;4954187;29;20169;-77
2021/03/16 03:47:11;;;;;;;3.40;2.03;;;;;;;;;;4956844;28;20176;-74
2021/03/16 03:49:37;;;;;;;3.85;2.00;;;;;;;;;;4958069;29;20195;-76
2021/03/16 03:52:03;;;;;;;4.78;1.50;;;;;;;;;;4958047;29;20176;-74
2021/03/16 03:54:30;;;;;;;4.63;1.92;;;;;;;;;;4957920;29;20580;-75
2021/03/16 03:56:57;;;;;;;5.22;2.22;;;;;;;;;;4957791;29;20359;-75
2021/03/16 03:59:23;;;;;;;3.78;1.88;;;;;;;;;;4957866;29;20180;-77
2021/03/16 04:01:50;;;;;;;5.57;1.83;;;;;;;;;;4957798;29;20236;-77
2021/03/16 04:04:16;;;;;;;2.22;2.03;;;;;;;;;;4957902;29;20176;-74
2021/03/16 04:06:42;;;;;;;6.07;2.15;;;;;;;;;;4957840;29;20184;-74
2021/03/16 04:09:08;;;;;;;3.50;2.35;;;;;;;;;;4940645;29;20260;-74
2021/03/16 04:11:34;;;;;;;8.52;2.30;;;;;;;;;;4958000;29;20203;-75
2021/03/16 04:17:04;;;;;;;2.17;1.85;;;;;;;;;;4957449;29;20446;-75
2021/03/16 04:19:30;;;;;;;3.70;1.63;;;;;;;;;;4957824;29;20197;-74
2021/03/16 04:21:56;;;;;;;6.45;2.05;;;;;;;;;;4957828;29;20288;-75
2021/03/16 04:24:22;;;;;;;2.22;1.75;;;;;;;;;;4957755;29;20178;-77
2021/03/16 04:26:48;;;;;;;4.05;1.70;;;;;;;;;;4957696;29;20195;-75
2021/03/16 04:32:18;;;;;;;4.82;1.60;;;;;;;;;;4957723;29;20166;-77
2021/03/16 04:34:44;;;;;;;5.32;2.10;;;;;;;;;;4957238;29;20679;-77
2021/03/16 04:37:10;;;;;;;3.95;1.83;;;;;;;;;;4939458;29;20640;-76
2021/03/16 04:39:36;;;;;;;2.60;1.80;;;;;;;;;;4957684;29;20635;-75
2021/03/16 04:42:02;;;;;;;2.60;1.90;;;;;;;;;;4956918;29;20206;-78
2021/03/16 04:44:28;;;;;;;5.07;1.95;;;;;;;;;;4956946;29;20814;-76
2021/03/16 04:46:54;;;;;;;3.63;2.00;;;;;;;;;;4956859;29;20312;-75
2021/03/16 04:49:20;;;;;;;3.83;1.38;;;;;;;;;;4957158;29;20167;-76
2021/03/16 04:51:46;;;;;;;2.20;1.20;;;;;;;;;;4957137;29;20175;-78
2021/03/16 04:54:12;;;;;;;2.33;1.77;;;;;;;;;;4957210;29;20444;-76
2021/03/16 04:56:38;;;;;;;3.38;1.63;;;;;;;;;;4957053;28;20500;-75
2021/03/16 05:02:07;;;;;;;4.97;2.13;;;;;;;;;;4956868;29;20507;-76
2021/03/16 05:04:34;;;;;;;1.90;1.00;;;;;;;;;;4939909;29;20221;-75
2021/03/16 05:06:59;;;;;;;3.53;1.58;;;;;;;;;;4956811;29;20444;-77
2021/03/16 05:09:25;;;;;;;2.70;1.20;;;;;;;;;;4956902;29;20180;-75
2021/03/16 05:11:51;;;;;;;2.60;1.77;;;;;;;;;;4956558;29;20883;-75
2021/03/16 05:17:21;;;;;;;1.80;1.33;;;;;;;;;;4956678;29;20289;-75
2021/03/16 05:19:47;;;;;;;1.30;1.02;;;;;;;;;;4956374;29;20613;-74
2021/03/16 05:22:13;;;;;;;2.90;1.10;;;;;;;;;;4956490;29;20251;-77
2021/03/16 05:24:39;;;;;;;2.10;0.90;;;;;;;;;;4956393;29;20424;-76
2021/03/16 05:32:55;;;;;;;3.40;1.48;;;;;;;;;;4956527;29;20238;-78
2021/03/16 05:35:21;;;;;;;4.03;1.40;;;;;;;;;;4956304;29;20250;-77
2021/03/16 05:37:47;;;;;;;5.35;1.95;;;;;;;;;;4956501;29;20176;-75
2021/03/16 05:40:13;;;;;;;7.83;1.53;;;;;;;;;;4956462;29;20621;-77
2021/03/16 05:42:39;;;;;;;4.80;2.45;;;;;;;;;;4956167;29;20427;-77
2021/03/16 05:45:06;;;;;;;4.65;1.95;;;;;;;;;;4956162;29;20269;-75
2021/03/16 05:47:32;;;;;;;6.30;1.92;;;;;;;;;;4955799;29;20192;-77
2021/03/16 05:49:58;;;;;;;6.95;1.70;;;;;;;;;;4956278;29;20201;-76
2021/03/16 05:52:24;;;;;;;1.80;1.20;;;;;;;;;;4956321;29;20181;-78
2021/03/16 05:54:54;;;;;;;4.53;1.20;;;;;;;;;;4956090;29;20228;-77
2021/03/16 05:57:21;;;;;;;4.50;1.77;;;;;;;;;;4955957;29;20189;-74
2021/03/16 05:59:48;;;;;;;3.95;1.55;;;;;;;;;;4955974;29;20175;-74
2021/03/16 06:02:15;;;;;;;7.35;2.13;;;;;;;;;;4955853;29;20169;-74
2021/03/16 06:04:44;;;;;;;5.78;1.60;;;;;;;;;;4956206;29;20184;-76
2021/03/16 06:07:13;;;;;;;3.08;1.50;;;;;;;;;;4956110;29;20542;-76
2021/03/16 06:09:39;;;;;;;11.88;2.10;;;;;;;;;;4955777;28;20164;-75
2021/03/16 06:12:06;;;;;;;5.70;1.77;;;;;;;;;;4955822;29;20200;-78
2021/03/16 06:17:41;;;;;;;3.78;1.40;;;;;;;;;;4954697;29;20259;-75
2021/03/16 06:20:08;;;;;;;2.85;1.15;;;;;;;;;;4955179;29;20180;-77
2021/03/16 06:22:34;;;;;;;1.45;1.20;;;;;;;;;;4955404;29;20229;-76
2021/03/16 06:25:00;;;;;;;3.10;1.80;;;;;;;;;;4955368;29;20169;-77
2021/03/16 06:27:27;;;;;;;4.72;1.83;;;;;;;;;;4955032;29;20255;-75
2021/03/16 06:32:57;;;;;;;3.22;1.50;;;;;;;;;;4954473;29;20220;-77
2021/03/16 06:35:23;;;;;;;1.80;1.55;;;;;;;;;;4954882;29;20300;-75
2021/03/16 06:38:02;;;;;;;4.85;1.90;;;;;;;;;;4954777;29;20176;-76
2021/03/16 06:40:28;;;;;;;5.43;2.15;;;;;;;;;;4954547;29;20174;-77
2021/03/16 06:43:10;;;;;;;7.88;2.75;;;;;;;;;;4954383;29;20179;-75
2021/03/16 06:45:39;;;;;;;3.75;1.65;;;;;;;;;;4954466;29;20176;-76
2021/03/16 06:48:24;;;;;;;3.88;1.80;;;;;;;;;;4954499;29;20656;-78
2021/03/16 06:50:51;;;;;;;8.32;2.20;;;;;;;;;;4954645;29;20525;-77
2021/03/16 06:53:20;;;;;;;4.85;2.00;;;;;;;;;;4954608;29;20174;-77
2021/03/16 06:55:52;;;;;;;11.20;2.30;;;;;;;;;;4954457;29;20303;-77
2021/03/16 06:58:22;;;;;;;3.58;2.80;;;;;;;;;;4954721;29;20240;-79
2021/03/16 07:00:48;;;;;;;6.93;2.42;;;;;;;;;;4954369;29;20165;-77
2021/03/16 07:03:14;;;;;;;4.93;1.92;;;;;;;;;;4954705;29;20200;-78
2021/03/16 07:05:40;;;;;;;8.93;1.90;;;;;;;;;;4954421;29;20176;-80
2021/03/16 07:08:06;;;;;;;3.90;2.28;;;;;;;;;;4954243;29;20171;-79
2021/03/16 07:10:35;;;;;;;7.72;1.45;;;;;;;;;;4954443;29;20171;-77
2021/03/16 07:13:01;;;;;;;5.97;1.48;;;;;;;;;;4953675;29;20617;-80
2021/03/16 07:15:27;;;;;;;6.00;3.67;;;;;;;;;;4952993;29;20746;-78
2021/03/16 07:17:54;;;;;;;6.13;2.22;;;;;;;;;;4953126;29;20257;-78
2021/03/16 07:20:20;;;;;;;2.83;2.00;;;;;;;;;;4952833;29;20188;-78
2021/03/16 07:22:50;;;;;;;9.05;2.78;;;;;;;;;;4953217;29;20186;-78
2021/03/16 07:25:16;;;;;;;9.30;1.90;;;;;;;;;;4952468;29;20228;-78
2021/03/16 07:27:42;;;;;;;4.32;1.40;;;;;;;;;;4952957;29;20185;-78
2021/03/16 07:33:14;;;;;;;2.88;2.55;;;;;;;;;;4952061;29;20228;-78
2021/03/16 07:35:43;;;;;;;2.08;1.88;;;;;;;;;;4952032;29;20610;-78
2021/03/16 07:38:10;;;;;;;5.75;2.42;;;;;;;;;;4952326;29;20473;-77
2021/03/16 07:40:39;;;;;;;9.10;3.20;;;;;;;;;;4952128;29;20181;-78
2021/03/16 07:43:10;;;;;;;7.55;1.98;;;;;;;;;;4951900;29;20164;-75
2021/03/16 07:45:36;;;;;;;4.95;2.38;;;;;;;;;;4952126;29;20170;-81
2021/03/16 07:48:13;;;;;;;2.55;2.33;;;;;;;;;;4951832;29;20185;-79
2021/03/16 07:50:39;;;;;;;3.58;2.20;;;;;;;;;;4951517;29;20493;-79
2021/03/16 07:53:05;;;;;;;6.13;2.20;;;;;;;;;;4952116;29;20665;-79
2021/03/16 07:55:31;;;;;;;12.27;2.50;;;;;;;;;;4951667;29;20295;-78
2021/03/16 08:04:09;;;;;;;3.00;1.70;;;;;;;;;;4952039;29;20288;-78
2021/03/16 08:06:36;;;;;;;6.20;2.88;;;;;;;;;;4952840;29;20179;-77
2021/03/16 08:09:03;;;;;;;6.43;3.05;;;;;;;;;;4952477;29;20536;-77
2021/03/16 08:11:39;;;;;;;3.90;2.45;;;;;;;;;;4952969;29;20274;-79
2021/03/16 08:14:05;;;;;;;3.88;2.38;;;;;;;;;;4952454;29;20234;-79
2021/03/16 08:16:35;;;;;;;2.37;1.87;;;;;;;;;;4952647;29;20222;-78
2021/03/16 08:19:27;;;;;;;2.85;1.98;;;;;;;;;;4952356;29;20475;-80
2021/03/16 08:21:57;;;;;;;4.78;1.92;;;;;;;;;;4950568;29;20272;-79
2021/03/16 08:24:34;;;;;;;3.67;1.67;;;;;;;;;;4952112;29;20181;-76
2021/03/16 08:27:00;;;;;;;6.67;2.70;;;;;;;;;;4952148;29;20175;-77
2021/03/16 08:29:28;;;;;;;7.95;2.25;;;;;;;;;;4952407;29;20410;-77
2021/03/16 08:31:54;;;;;;;4.57;3.00;;;;;;;;;;4952357;28;20182;-77
2021/03/16 08:34:22;;;;;;;7.45;2.65;;;;;;;;;;4955631;29;20415;-78
2021/03/16 08:36:48;;;;;;;5.18;2.55;;;;;;;;;;4955761;29;20186;-79
2021/03/16 08:39:25;;;;;;;8.52;3.05;;;;;;;;;;4954375;29;20171;-77
2021/03/16 08:41:58;;;;;;;4.85;2.88;;;;;;;;;;4954954;29;20179;-79
2021/03/16 08:44:25;;;;;;;8.75;3.90;;;;;;;;;;4955249;29;20174;-77
2021/03/16 08:46:51;;;;;;;4.63;3.50;;;;;;;;;;4955436;29;20258;-78
2021/03/16 08:49:20;;;;;;;6.93;3.92;;;;;;;;;;4956012;29;20185;-77
2021/03/16 08:51:46;;;;;;;5.00;4.10;;;;;;;;;;4955960;29;20546;-76
2021/03/16 08:54:22;;;;;;;5.50;3.20;;;;;;;;;;4955440;29;20178;-77
2021/03/16 08:56:51;;;;;;;7.40;3.72;;;;;;;;;;4953589;29;20708;-76
2021/03/16 08:59:21;;;;;;;7.40;3.40;;;;;;;;;;4953350;29;20187;-79
2021/03/16 09:01:49;;;;;;;5.22;2.42;;;;;;;;;;4955335;29;20178;-78
2021/03/16 09:04:15;;;;;;;5.43;2.70;;;;;;;;;;4955626;29;20159;-78
2021/03/16 09:06:41;;;;;;;8.07;3.17;;;;;;;;;;4954857;29;20190;-79
2021/03/16 09:09:08;;;;;;;6.85;3.20;;;;;;;;;;4952108;29;20170;-78
2021/03/16 09:11:42;;;;;;;6.50;3.05;;;;;;;;;;4951684;29;20185;-78
2021/03/16 09:14:08;;;;;;;4.75;2.20;;;;;;;;;;4951902;29;20256;-77
2021/03/16 09:16:34;;;;;;;6.50;2.27;;;;;;;;;;4951417;29;20211;-74
2021/03/16 09:19:00;;;;;;;7.25;2.78;;;;;;;;;;4955018;29;20910;-77
2021/03/16 09:21:26;;;;;;;3.50;2.10;;;;;;;;;;4955705;29;20206;-75
2021/03/16 09:23:52;;;;;;;8.30;5.63;;;;;;;;;;4955651;29;20411;-79
2021/03/16 09:26:25;;;;;;;3.28;2.58;;;;;;;;;;4955413;29;20214;-80
2021/03/16 09:28:52;;;;;;;3.58;2.13;;;;;;;;;;4955214;29;20194;-79
2021/03/16 09:31:20;;;;;;;9.35;3.13;;;;;;;;;;4955179;29;20190;-75
2021/03/16 09:33:46;;;;;;;8.95;3.00;;;;;;;;;;4954992;29;20193;-80
2021/03/16 09:36:13;;;;;;;3.92;3.08;;;;;;;;;;4955047;29;20213;-79
2021/03/16 09:38:39;;;;;;;3.60;2.05;;;;;;;;;;4955381;29;20262;-79
2021/03/16 09:41:09;;;;;;;7.95;2.80;;;;;;;;;;4955063;29;20190;-79
2021/03/16 09:43:36;;;;;;;8.43;3.85;;;;;;;;;;4954497;28;20175;-80
2021/03/16 09:49:06;;;;;;;8.93;2.70;;;;;;;;;;4955037;29;20182;-80
2021/03/16 09:51:32;;;;;;;2.85;2.53;;;;;;;;;;4954686;29;20202;-74
2021/03/16 09:53:59;;;;;;;6.25;2.75;;;;;;;;;;4954924;29;20269;-73
2021/03/16 09:56:36;;;;;;;5.00;2.45;;;;;;;;;;4936580;29;20231;-77
2021/03/16 09:59:02;;;;;;;3.28;2.55;;;;;;;;;;4954535;29;20207;-79
2021/03/16 10:01:29;;;;;;;3.78;2.38;;;;;;;;;;4954756;29;20194;-80
2021/03/16 10:03:58;;;;;;;3.83;2.85;;;;;;;;;;4954626;29;20203;-79
2021/03/16 10:06:42;;;;;;;4.32;2.78;;;;;;;;;;4954587;29;20178;-78
2021/03/16 10:09:18;;;;;;;5.28;2.65;;;;;;;;;;4954734;29;20183;-75
2021/03/16 10:11:44;;;;;;;4.63;2.78;;;;;;;;;;4954401;29;20304;-78
2021/03/16 10:20:17;;;;;;;6.65;3.72;;;;;;;;;;4954542;29;20780;-79
2021/03/16 10:22:51;;;;;;;6.53;2.80;;;;;;;;;;4954172;29;20174;-74
2021/03/16 10:25:17;;;;;;;4.68;2.92;;;;;;;;;;4954172;29;20171;-77
2021/03/16 10:27:53;;;;;;;5.33;3.07;;;;;;;;;;4954102;29;20569;-80
2021/03/16 10:30:20;;;;;;;6.55;3.67;;;;;;;;;;4954334;29;20421;-78
2021/03/16 10:32:45;;;;;;;5.88;3.17;;;;;;;;;;4953902;29;20236;-79
2021/03/16 10:35:12;;;;;;;9.53;3.33;;;;;;;;;;4953857;29;20244;-80
2021/03/16 10:37:44;;;;;;;7.35;3.20;;;;;;;;;;4954062;29;20422;-80
2021/03/16 10:40:10;;;;;;;9.88;3.25;;;;;;;;;;4953946;29;20175;-76
2021/03/16 10:42:36;;;;;;;7.00;3.05;;;;;;;;;;4953870;29;20191;-78
2021/03/16 10:45:03;;;;;;;8.30;3.37;;;;;;;;;;4954187;29;20186;-79
2021/03/16 10:47:29;;;;;;;8.15;4.05;;;;;;;;;;4953818;29;20426;-77
2021/03/16 10:49:55;;;;;;;7.60;4.40;;;;;;;;;;4954030;29;20179;-75
2021/03/16 10:52:20;;;;;;;7.57;4.43;;;;;;;;;;4954212;29;20556;-79
2021/03/16 10:54:49;;;;;;;4.10;3.33;;;;;;;;;;4953720;28;20806;-74
2021/03/16 10:57:15;;;;;;;6.05;3.92;;;;;;;;;;4952968;29;20446;-75
2021/03/16 10:59:41;;;;;;;5.32;2.80;;;;;;;;;;4953481;29;20596;-75
2021/03/16 11:02:08;;;;;;;7.10;3.83;;;;;;;;;;4953159;29;20221;-74
2021/03/16 11:04:35;;;;;;;8.57;3.50;;;;;;;;;;4953970;29;20454;-77
2021/03/16 11:07:01;;;;;;;5.07;3.25;;;;;;;;;;4953822;29;20587;-79
2021/03/16 11:09:27;;;;;;;6.97;3.33;;;;;;;;;;4953534;29;20172;-80
2021/03/16 11:11:53;;;;;;;4.40;2.95;;;;;;;;;;4953631;29;20418;-78
2021/03/16 11:14:21;;;;;;;13.97;3.23;;;;;;;;;;4953051;29;20230;-79
2021/03/16 11:16:47;;;;;;;6.18;2.90;;;;;;;;;;4953138;29;20566;-76
2021/03/16 11:19:13;;;;;;;6.23;2.70;;;;;;;;;;4953289;29;20174;-76
2021/03/16 11:21:39;;;;;;;4.65;2.78;;;;;;;;;;4953380;29;20913;-73
2021/03/16 11:24:05;;;;;;;6.13;2.60;;;;;;;;;;4953655;29;20172;-78
2021/03/16 11:26:31;;;;;;;3.60;1.97;;;;;;;;;;4953535;29;20430;-78
2021/03/16 11:28:57;;;;;;;4.87;3.33;;;;;;;;;;4953629;29;20469;-77
2021/03/16 11:34:29;;;;;;;5.07;2.80;;;;;;;;;;4953680;29;20458;-78
2021/03/16 11:36:55;;;;;;;3.90;2.80;;;;;;;;;;4953768;29;20443;-77
2021/03/16 11:39:21;;;;;;;6.70;2.90;;;;;;;;;;4953969;29;20172;-77
2021/03/16 11:41:49;;;;;;;10.47;2.80;;;;;;;;;;4953724;29;20446;-76
2021/03/16 11:44:14;;;;;;;3.70;2.73;;;;;;;;;;4953598;29;20411;-78
2021/03/16 11:46:40;;;;;;;8.63;3.23;;;;;;;;;;4953543;29;20497;-77
2021/03/16 11:49:07;;;;;;;9.43;3.77;;;;;;;;;;4953642;29;20420;-76
2021/03/16 11:51:33;;;;;;;5.60;3.28;;;;;;;;;;4953502;29;20426;-77
2021/03/16 11:53:59;;;;;;;6.07;3.22;;;;;;;;;;4953160;29;20179;-77
2021/03/16 11:56:26;;;;;;;5.85;3.10;;;;;;;;;;4954083;29;20215;-80
2021/03/16 11:58:52;;;;;;;4.30;3.08;;;;;;;;;;4936562;29;20230;-74
2021/03/16 12:04:22;;;;;;;4.47;2.73;;;;;;;;;;4953647;29;20379;-73
2021/03/16 12:06:48;;;;;;;8.55;2.75;;;;;;;;;;4953763;28;20910;-75
2021/03/16 12:09:14;;;;;;;6.30;3.00;;;;;;;;;;4957021;29;20240;-77
2021/03/16 12:11:43;;;;;;;4.87;2.40;;;;;;;;;;4956905;29;20969;-76
2021/03/16 12:14:09;;;;;;;5.35;2.63;;;;;;;;;;4956930;29;20486;-76
2021/03/16 12:19:38;;;;;;;4.25;2.40;;;;;;;;;;4957019;29;20193;-74
2021/03/16 12:22:05;;;;;;;5.68;2.83;;;;;;;;;;4939220;29;20626;-74
2021/03/16 12:24:31;;;;;;;3.60;2.50;;;;;;;;;;4956842;29;20222;-74
2021/03/16 12:26:57;;;;;;;2.60;2.20;;;;;;;;;;4956704;29;20415;-77
2021/03/16 12:29:23;;;;;;;3.13;1.90;;;;;;;;;;4956709;29;20489;-78
2021/03/16 12:34:53;;;;;;;3.50;1.90;;;;;;;;;;4956343;29;20932;-78
2021/03/16 12:37:19;;;;;;;3.33;1.93;;;;;;;;;;4956103;29;20507;-76
2021/03/16 12:39:45;;;;;;;4.93;1.93;;;;;;;;;;4939044;29;20423;-74
2021/03/16 12:42:12;;;;;;;3.23;1.80;;;;;;;;;;4956457;29;20439;-76
2021/03/16 12:44:38;;;;;;;3.40;2.10;;;;;;;;;;4954611;29;20423;-75
2021/03/16 12:47:05;;;;;;;4.63;2.37;;;;;;;;;;4955132;29;20767;-77
2021/03/16 12:49:31;;;;;;;1.90;1.77;;;;;;;;;;4955146;29;20487;-77
2021/03/16 12:51:57;;;;;;;5.20;1.90;;;;;;;;;;4955478;29;20419;-75
2021/03/16 12:54:24;;;;;;;4.77;2.20;;;;;;;;;;4955092;29;20419;-78
2021/03/16 12:56:50;;;;;;;2.23;1.80;;;;;;;;;;4955302;29;20522;-77
2021/03/16 12:59:17;;;;;;;3.20;2.10;;;;;;;;;;4955074;29;20425;-75
2021/03/16 13:04:46;;;;;;;6.17;2.20;;;;;;;;;;4955283;29;20451;-77
2021/03/16 13:07:12;;;;;;;1.50;1.30;;;;;;;;;;4955308;29;20504;-79
2021/03/16 13:09:38;;;;;;;6.50;1.90;;;;;;;;;;4955110;29;20439;-78
2021/03/16 13:12:05;;;;;;;3.20;1.90;;;;;;;;;;4955111;29;20491;-78
2021/03/16 13:14:31;;;;;;;2.70;1.57;;;;;;;;;;4954672;29;20471;-79
2021/03/16 13:20:00;;;;;;;3.30;1.60;;;;;;;;;;4953785;28;20484;-78
2021/03/16 13:22:26;;;;;;;4.37;1.67;;;;;;;;;;4954458;29;20412;-77
2021/03/16 13:24:52;;;;;;;3.27;1.37;;;;;;;;;;4954367;29;20424;-77
2021/03/16 13:27:18;;;;;;;1.57;1.47;;;;;;;;;;4954397;29;20491;-75
2021/03/16 13:29:44;;;;;;;2.50;2.03;;;;;;;;;;4954322;29;20466;-77
2021/03/16 13:35:14;;;;;;;4.63;1.67;;;;;;;;;;4954151;29;20465;-78
2021/03/16 13:37:40;;;;;;;3.70;1.60;;;;;;;;;;4954180;29;20419;-77
2021/03/16 13:40:06;;;;;;;2.10;1.80;;;;;;;;;;4954541;29;20490;-75
2021/03/16 13:42:33;;;;;;;7.30;2.37;;;;;;;;;;4954572;29;20633;-78
2021/03/16 13:44:59;;;;;;;2.30;1.50;;;;;;;;;;4954358;29;20407;-78
2021/03/16 13:47:25;;;;;;;3.90;2.63;;;;;;;;;;4954175;29;20409;-80
2021/03/16 13:49:51;;;;;;;1.63;1.27;;;;;;;;;;4954658;29;20450;-78
2021/03/16 13:52:17;;;;;;;2.10;1.67;;;;;;;;;;4954341;29;20419;-78
2021/03/16 13:54:43;;;;;;;3.30;1.40;;;;;;;;;;4954101;29;20457;-78
2021/03/16 13:57:09;;;;;;;2.73;1.43;;;;;;;;;;4954114;29;20467;-79
2021/03/16 13:59:35;;;;;;;1.30;1.20;;;;;;;;;;4954167;29;20412;-77
2021/03/16 14:05:04;;;;;;;1.27;1.00;;;;;;;;;;4954665;29;20897;-77
2021/03/16 14:07:30;;;;;;;3.00;1.37;;;;;;;;;;4955076;29;20408;-79
2021/03/16 14:09:56;;;;;;;3.23;1.17;;;;;;;;;;4955587;29;20431;-78
2021/03/16 14:12:22;;;;;;;2.03;0.87;;;;;;;;;;4955887;29;20457;-77
2021/03/16 14:14:49;;;;;;;1.40;1.03;;;;;;;;;;4954163;29;20478;-77
2021/03/16 14:20:19;;;;;;;2.70;1.13;;;;;;;;;;4954563;29;20960;-76
2021/03/16 14:22:45;;;;;;;3.90;1.57;;;;;;;;;;4953979;29;20508;-77
2021/03/16 14:25:12;;;;;;;1.07;1.00;;;;;;;;;;4952858;29;20455;-77
2021/03/16 14:27:38;;;;;;;2.03;1.30;;;;;;;;;;4936152;29;20914;-78
2021/03/16 14:30:05;;;;;;;1.73;1.47;;;;;;;;;;4953146;28;20431;-77
2021/03/16 14:35:35;;;;;;;3.17;1.00;;;;;;;;;;4953285;29;20909;-76
2021/03/16 14:38:01;;;;;;;2.43;1.03;;;;;;;;;;4953202;29;20417;-76
2021/03/16 14:40:27;;;;;;;1.90;1.10;;;;;;;;;;4953043;29;20506;-75
2021/03/16 14:42:53;;;;;;;2.70;1.20;;;;;;;;;;4952365;29;20420;-76
2021/03/16 14:51:07;;;;;;;1.60;1.07;;;;;;;;;;4952828;29;20416;-76
2021/03/16 14:53:33;;;;;;;7.13;1.70;;;;;;;;;;4952718;29;20420;-75
2021/03/16 14:55:59;;;;;;;3.07;1.13;;;;;;;;;;4952793;29;20560;-76
2021/03/16 14:58:25;;;;;;;7.33;1.30;;;;;;;;;;4952463;29;20424;-75
2021/03/16 15:00:52;;;;;;;6.67;0.90;;;;;;;;;;4952310;29;20430;-78
2021/03/16 15:03:18;;;;;;;4.73;1.60;;;;;;;;;;4952395;29;20421;-76
2021/03/16 15:05:44;;;;;;;2.47;1.23;;;;;;;;;;4952132;29;20425;-74
2021/03/16 15:08:12;;;;;;;1.70;1.10;;;;;;;;;;4952651;29;20755;-79
2021/03/16 15:10:38;;;;;;;2.20;0.90;;;;;;;;;;4952456;29;20419;-78
2021/03/16 15:13:07;;;;;;;4.67;1.20;;;;;;;;;;4951977;29;20496;-76
2021/03/16 15:15:33;;;;;;;1.47;0.87;;;;;;;;;;4951659;29;20501;-76
2021/03/16 15:17:59;;;;;;;1.80;1.27;;;;;;;;;;4952196;29;20414;-76
2021/03/16 15:20:26;;;;;;;5.43;1.37;;;;;;;;;;4952286;29;20974;-76
2021/03/16 15:22:52;;;;;;;1.73;1.10;;;;;;;;;;4952077;29;20446;-76
2021/03/16 15:25:19;;;;;;;2.70;1.00;;;;;;;;;;4952243;29;20426;-78
2021/03/16 15:27:45;;;;;;;1.43;1.30;;;;;;;;;;4952301;29;20421;-79
2021/03/16 15:30:12;;;;;;;1.73;1.30;;;;;;;;;;4952102;29;20920;-77
2021/03/16 15:35:42;;;;;;;2.80;1.23;;;;;;;;;;4952304;29;20478;-77
2021/03/16 15:38:08;;;;;;;2.00;1.47;;;;;;;;;;4952117;29;20823;-76
2021/03/16 15:40:34;;;;;;;1.73;1.23;;;;;;;;;;4951981;29;20848;-80
2021/03/16 15:43:00;;;;;;;2.83;1.40;;;;;;;;;;4954915;28;20412;-81
2021/03/16 15:45:26;;;;;;;5.87;3.43;;;;;;;;;;4956461;29;20419;-80
2021/03/16 15:50:56;;;;;;;2.20;1.17;;;;;;;;;;4957190;29;20948;-79
2021/03/16 15:53:21;;;;;;;3.27;1.80;;;;;;;;;;4956566;29;20412;-77
2021/03/16 15:55:47;;;;;;;1.77;1.03;;;;;;;;;;4955889;29;20570;-81
2021/03/16 15:58:13;;;;;;;2.57;1.73;;;;;;;;;;4956189;29;20416;-79
2021/03/16 16:00:39;;;;;;;3.03;1.47;;;;;;;;;;4956058;29;20782;-78
2021/03/16 16:06:09;;;;;;;2.30;2.10;;;;;;;;;;4956055;29;20441;-79
2021/03/16 16:08:35;;;;;;;7.00;1.70;;;;;;;;;;4955812;29;20831;-77
2021/03/16 16:11:01;;;;;;;4.63;1.70;;;;;;;;;;4955815;29;20400;-78
2021/03/16 16:13:27;;;;;;;4.00;2.40;;;;;;;;;;4955595;29;20503;-79
2021/03/16 16:15:55;;;;;;;3.80;2.35;;;;;;;;;;4955214;29;20554;-79
2021/03/16 16:21:25;;;;;;;2.08;1.75;;;;;;;;;;4955528;29;20498;-78
2021/03/16 16:23:51;;;;;;;3.05;2.03;;;;;;;;;;4954997;29;20176;-75
2021/03/16 16:26:17;;;;;;;1.98;1.85;;;;;;;;;;4955323;29;20758;-79
2021/03/16 16:28:43;;;;;;;5.30;2.17;;;;;;;;;;4955278;29;20307;-75
2021/03/16 16:36:59;;;;;;;4.65;2.25;;;;;;;;;;4954970;29;20293;-76
2021/03/16 16:39:25;;;;;;;3.83;2.00;;;;;;;;;;4955746;29;20238;-77
2021/03/16 16:41:52;;;;;;;5.65;2.55;;;;;;;;;;4955591;29;20187;-77
2021/03/16 16:44:21;;;;;;;2.95;1.98;;;;;;;;;;4955235;29;20175;-78
2021/03/16 16:46:47;;;;;;;6.55;2.30;;;;;;;;;;4955618;29;20658;-79
2021/03/16 16:49:14;;;;;;;3.15;2.00;;;;;;;;;;4955635;29;20186;-74